createdAt,value
2023-03-20T11:08:18.226Z,17.38
2023-03-20T11:11:06.099Z,17.44
2023-03-20T11:13:45.569Z,17.60
2023-03-20T11:16:34.571Z,17.64
2023-03-20T11:19:17.842Z,17.70
2023-03-20T11:21:58.441Z,17.70
2023-03-20T11:24:48.206Z,17.64
2023-03-20T11:27:31.430Z,17.60
2023-03-20T11:30:17.788Z,17.50
2023-03-20T11:33:02.450Z,17.50
2023-03-20T11:35:39.594Z,17.50
2023-03-20T11:38:23.518Z,17.60
2023-03-20T11:41:00.132Z,17.50
2023-03-20T11:43:44.123Z,17.50
2023-03-20T11:46:21.989Z,17.54
2023-03-20T11:49:22.507Z,17.60
2023-03-20T11:52:04.008Z,17.70
2023-03-20T11:54:49.890Z,17.60
2023-03-20T11:57:40.659Z,17.70
2023-03-20T12:00:29.504Z,17.80
2023-03-20T12:03:07.117Z,17.90
2023-03-20T12:05:45.424Z,17.90
2023-03-20T12:08:30.146Z,18.00
2023-03-20T12:11:21.253Z,18.10
2023-03-20T12:14:02.184Z,18.20
2023-03-20T12:16:42.013Z,18.28
2023-03-20T12:19:26.172Z,18.30
2023-03-20T12:22:18.679Z,18.46
2023-03-20T12:25:05.121Z,18.50
2023-03-20T12:27:51.612Z,18.60
2023-03-20T12:30:42.759Z,18.60
2023-03-20T12:33:29.109Z,18.70
2023-03-20T12:36:07.775Z,18.70
2023-03-20T12:38:46.066Z,18.72
2023-03-20T12:41:32.371Z,18.80
2023-03-20T12:44:46.711Z,18.80
2023-03-20T12:47:59.297Z,18.70
2023-03-20T12:50:40.191Z,18.70
2023-03-20T12:53:49.349Z,18.72
2023-03-20T12:56:48.500Z,18.70
2023-03-20T12:59:39.161Z,18.80
2023-03-20T13:02:37.568Z,18.80
2023-03-20T13:05:31.209Z,18.80
2023-03-20T13:08:41.586Z,18.90
2023-03-20T13:11:32.026Z,18.90
2023-03-20T13:14:18.139Z,18.94
2023-03-20T13:17:05.112Z,19.00
2023-03-20T13:19:51.876Z,19.04
2023-03-20T13:22:40.810Z,19.10
2023-03-20T13:25:37.625Z,19.20
2023-03-20T13:28:27.892Z,19.00
2023-03-20T13:31:17.234Z,19.00
2023-03-20T13:34:05.924Z,19.10
2023-03-20T13:37:22.399Z,19.10
2023-03-20T13:40:16.293Z,19.20
2023-03-20T13:43:01.623Z,19.20
2023-03-20T13:45:43.436Z,19.20
2023-03-20T13:48:34.842Z,19.00
2023-03-20T13:51:33.047Z,19.00
2023-03-20T13:54:33.352Z,19.00
2023-03-20T13:57:20.799Z,19.10
2023-03-20T14:00:08.754Z,19.10
2023-03-20T14:03:19.681Z,19.10
2023-03-20T14:05:57.873Z,19.02
2023-03-20T14:08:42.320Z,19.02
2023-03-20T14:11:35.880Z,19.00
2023-03-20T14:14:21.508Z,18.90
2023-03-20T14:17:16.406Z,18.82
2023-03-20T14:19:54.897Z,18.60
2023-03-20T14:22:39.199Z,18.54
2023-03-20T14:25:26.382Z,18.50
2023-03-20T14:28:25.351Z,18.48
2023-03-20T14:31:30.704Z,18.50
2023-03-20T14:34:28.764Z,18.60
2023-03-20T14:37:28.716Z,18.60
2023-03-20T14:40:20.880Z,18.50
2023-03-20T14:43:00.987Z,18.50
2023-03-20T14:45:48.068Z,18.52
2023-03-20T14:48:37.749Z,18.60
2023-03-20T14:51:32.583Z,18.70
2023-03-20T14:54:43.049Z,18.80
2023-03-20T14:57:52.769Z,18.80
2023-03-20T15:00:36.894Z,18.90
2023-03-20T15:03:20.122Z,18.90
2023-03-20T15:06:08.247Z,19.00
2023-03-20T15:08:55.152Z,19.00
2023-03-20T15:11:32.558Z,19.00
2023-03-20T15:14:13.635Z,18.90
2023-03-20T15:17:00.835Z,18.90
2023-03-20T15:19:41.905Z,18.90
2023-03-20T15:22:24.541Z,18.80
2023-03-20T15:25:02.614Z,18.80
2023-03-20T15:27:39.502Z,18.74
2023-03-20T15:30:26.042Z,18.70
2023-03-20T15:33:03.354Z,18.70
2023-03-20T15:35:40.818Z,18.50
2023-03-20T15:38:22.093Z,18.40
2023-03-20T15:40:58.448Z,18.30
2023-03-20T15:43:35.374Z,18.30
2023-03-20T15:46:18.340Z,18.20
2023-03-20T15:49:00.504Z,18.20
2023-03-20T15:51:37.454Z,18.16
2023-03-20T15:54:17.824Z,18.10
2023-03-20T15:57:00.815Z,18.10
2023-03-20T15:59:40.342Z,18.10
2023-03-20T16:02:19.345Z,18.02
2023-03-20T16:04:59.582Z,18.00
2023-03-20T16:07:38.078Z,17.90
2023-03-20T16:10:29.947Z,17.90
2023-03-20T16:13:10.001Z,17.90
2023-03-20T16:15:49.384Z,17.90
2023-03-20T16:18:27.345Z,17.80
2023-03-20T16:21:09.115Z,17.70
2023-03-20T16:23:47.837Z,17.70
2023-03-20T16:26:28.452Z,17.50
2023-03-20T16:29:07.703Z,17.38
2023-03-20T16:32:03.770Z,17.30
2023-03-20T16:34:42.264Z,17.20
2023-03-20T16:37:32.911Z,17.10
2023-03-20T16:40:33.411Z,17.10
2023-03-20T16:43:21.675Z,17.00
2023-03-20T16:46:08.240Z,17.00
2023-03-20T16:48:46.891Z,17.00
2023-03-20T16:51:29.869Z,16.90
2023-03-20T16:54:07.014Z,16.90
2023-03-20T16:56:44.210Z,16.90
2023-03-20T16:59:28.694Z,16.86
2023-03-20T17:02:14.374Z,16.80
2023-03-20T17:04:56.334Z,16.70
2023-03-20T17:07:33.738Z,16.70
2023-03-20T17:10:29.083Z,16.60
2023-03-20T17:13:07.419Z,16.58
2023-03-20T17:15:45.369Z,16.50
2023-03-20T17:18:22.955Z,16.40
2023-03-20T17:20:59.682Z,16.30
2023-03-20T17:23:36.634Z,16.30
2023-03-20T17:26:15.586Z,16.20
2023-03-20T17:28:52.633Z,16.10
2023-03-20T17:31:29.243Z,16.06
2023-03-20T17:34:06.605Z,16.00
2023-03-20T17:36:45.212Z,15.90
2023-03-20T17:39:26.380Z,15.90
2023-03-20T17:42:02.751Z,15.80
2023-03-20T17:44:39.850Z,15.70
2023-03-20T17:47:24.024Z,15.60
2023-03-20T17:50:00.289Z,15.50
2023-03-20T17:52:36.884Z,15.44
2023-03-20T17:55:16.510Z,15.40
2023-03-20T17:57:53.935Z,15.30
2023-03-20T18:00:32.495Z,15.30
2023-03-20T18:03:09.188Z,15.20
2023-03-20T18:05:46.038Z,15.18
2023-03-20T18:08:25.293Z,15.18
2023-03-20T18:11:03.065Z,15.10
2023-03-20T18:13:39.434Z,15.10
2023-03-20T18:16:24.465Z,15.10
2023-03-20T18:19:01.052Z,15.10
2023-03-20T18:21:38.479Z,15.10
2023-03-20T18:24:18.649Z,15.10
2023-03-20T18:26:55.972Z,15.10
2023-03-20T18:29:33.464Z,15.10
2023-03-20T18:32:10.251Z,15.10
2023-03-20T18:34:47.595Z,15.10
2023-03-20T18:37:24.724Z,15.10
2023-03-20T18:40:03.627Z,15.10
2023-03-20T18:42:39.444Z,15.10
2023-03-20T18:45:21.258Z,15.10
2023-03-20T18:47:58.747Z,15.02
2023-03-20T18:50:38.471Z,15.00
2023-03-20T18:53:15.629Z,15.00
2023-03-20T18:55:52.335Z,14.90
2023-03-20T18:58:32.425Z,14.80
2023-03-20T19:01:11.846Z,14.80
2023-03-20T19:03:49.219Z,14.70
2023-03-20T19:06:27.363Z,14.66
2023-03-20T19:09:04.755Z,14.60
2023-03-20T19:11:42.975Z,14.50
2023-03-20T19:14:20.285Z,14.50
2023-03-20T19:16:57.282Z,14.40
2023-03-20T19:19:35.381Z,14.30
2023-03-20T19:22:26.557Z,14.30
2023-03-20T19:25:05.970Z,14.20
2023-03-20T19:27:43.778Z,14.10
2023-03-20T19:30:34.576Z,14.04
2023-03-20T19:33:11.337Z,14.00
2023-03-20T19:36:02.364Z,13.98
2023-03-20T19:38:40.217Z,14.00
2023-03-20T19:41:19.905Z,14.00
2023-03-20T19:43:56.575Z,14.00
2023-03-20T19:46:42.206Z,14.00
2023-03-20T19:49:30.611Z,13.90
2023-03-20T19:52:07.222Z,13.90
2023-03-20T19:54:59.928Z,13.90
2023-03-20T19:57:38.783Z,13.80
2023-03-20T20:03:25.987Z,13.70
2023-03-20T20:06:05.018Z,13.70
2023-03-20T20:08:48.271Z,13.70
2023-03-20T20:11:27.107Z,13.64
2023-03-20T20:14:07.520Z,13.60
2023-03-20T20:16:49.223Z,13.56
2023-03-20T20:19:28.359Z,13.56
2023-03-20T20:22:26.107Z,13.50
2023-03-20T20:25:01.432Z,13.50
2023-03-20T20:27:37.969Z,13.42
2023-03-20T20:30:22.048Z,13.40
2023-03-20T20:33:03.987Z,13.40
2023-03-20T20:36:10.768Z,13.40
2023-03-20T20:38:50.700Z,13.40
2023-03-20T20:41:30.159Z,13.40
2023-03-20T20:44:16.177Z,13.34
2023-03-20T20:46:54.294Z,13.30
2023-03-20T20:49:31.429Z,13.30
2023-03-20T20:52:06.913Z,13.30
2023-03-20T20:54:44.770Z,13.20
2023-03-20T20:57:20.941Z,13.20
2023-03-20T21:00:00.132Z,13.20
2023-03-20T21:02:39.579Z,13.16
2023-03-20T21:05:20.761Z,13.18
2023-03-20T21:07:59.266Z,13.12
2023-03-20T21:10:36.955Z,13.10
2023-03-20T21:13:14.109Z,13.10
2023-03-20T21:15:59.522Z,13.10
2023-03-20T21:18:35.141Z,13.10
2023-03-20T21:21:17.270Z,13.10
2023-03-20T21:23:55.331Z,13.10
2023-03-20T21:26:32.831Z,13.00
2023-03-20T21:29:10.254Z,13.00
2023-03-20T21:31:46.952Z,13.00
2023-03-20T21:34:24.323Z,12.90
2023-03-20T21:37:34.652Z,12.78
2023-03-20T21:39:59.669Z,12.60
2023-03-20T21:42:37.067Z,12.60
2023-03-20T21:49:12.761Z,12.50
2023-03-20T22:03:10.347Z,12.32
2023-03-20T22:06:29.595Z,12.40
2023-03-20T22:24:29.943Z,12.20
2023-03-20T22:33:21.115Z,12.10
2023-03-20T22:42:06.974Z,12.00
2023-03-20T22:47:17.107Z,11.90
2023-03-20T22:49:53.990Z,11.82
2023-03-20T22:52:47.704Z,11.80
2023-03-20T22:55:26.825Z,11.90
2023-03-20T22:58:07.889Z,11.90
2023-03-20T23:00:45.770Z,11.90
2023-03-20T23:03:39.969Z,12.00
2023-03-20T23:06:28.489Z,12.00
2023-03-20T23:09:14.528Z,12.00
2023-03-20T23:11:51.409Z,12.10
2023-03-20T23:14:30.815Z,12.10
2023-03-20T23:17:10.547Z,12.10
2023-03-20T23:19:54.104Z,12.10
2023-03-20T23:22:36.124Z,12.10
2023-03-20T23:25:27.557Z,12.10
2023-03-20T23:28:14.567Z,12.10
2023-03-20T23:31:07.373Z,12.10
2023-03-20T23:33:46.620Z,12.10
2023-03-20T23:36:35.390Z,12.12
2023-03-20T23:39:16.446Z,12.18
2023-03-20T23:42:09.906Z,12.12
2023-03-20T23:44:56.357Z,12.10
2023-03-20T23:47:44.382Z,12.10
2023-03-20T23:53:23.929Z,12.10
2023-03-20T23:56:02.854Z,12.00
2023-03-20T23:58:41.873Z,11.90
